Time;durP1;ratioP1;P1;durP2;ratioP2;P2;SDS_P1;SDS_P2;PMS_P1;PMS_P2;Temp;Humidity;BMP_temperature;BMP_pressure;BME280_temperature;BME280_humidity;BME280_pressure;Samples;Min_cycle;Max_cycle;Signal;HPM_P1;HPM_P2
2021/04/20 00:00:44;;;;;;;36.03;26.05;;;8.40;85.20;;;;;;4905799;29;20409;-75
2021/04/20 00:03:10;;;;;;;33.80;25.60;;;8.40;85.30;;;;;;4899820;29;20108;-75
2021/04/20 00:05:36;;;;;;;34.63;25.98;;;8.40;85.20;;;;;;4897886;29;20040;-75
2021/04/20 00:08:01;;;;;;;36.25;25.30;;;8.40;85.20;;;;;;4897745;29;20036;-75
2021/04/20 00:10:27;;;;;;;32.58;24.73;;;8.40;85.10;;;;;;4898038;29;20040;-75
2021/04/20 00:12:53;;;;;;;37.10;24.42;;;8.40;85.10;;;;;;4898831;29;20035;-75
2021/04/20 00:15:25;;;;;;;44.55;26.33;;;8.40;85.30;;;;;;4903374;29;20067;-75
2021/04/20 00:17:52;;;;;;;60.72;29.80;;;8.30;85.20;;;;;;4898410;29;20020;-75
2021/04/20 00:20:18;;;;;;;69.28;32.35;;;8.30;85.10;;;;;;4897440;29;20044;-76
2021/04/20 00:22:44;;;;;;;70.93;33.13;;;8.30;85.10;;;;;;4897567;29;20040;-75
2021/04/20 00:25:10;;;;;;;53.63;27.77;;;8.30;85.20;;;;;;4898504;29;20398;-75
2021/04/20 00:27:36;;;;;;;55.92;27.75;;;8.20;85.10;;;;;;4898248;29;20036;-75
2021/04/20 00:30:07;;;;;;;57.35;28.42;;;8.20;85.20;;;;;;4898282;29;20104;-75
2021/04/20 00:32:33;;;;;;;58.80;28.20;;;8.10;85.20;;;;;;4898192;29;20025;-75
2021/04/20 00:34:58;;;;;;;74.22;31.38;;;8.00;85.10;;;;;;4898218;29;20028;-75
2021/04/20 00:37:24;;;;;;;67.97;30.02;;;8.00;85.20;;;;;;4896830;29;20036;-75
2021/04/20 00:39:49;;;;;;;55.15;28.60;;;8.00;85.30;;;;;;4896670;29;20060;-75
2021/04/20 00:42:15;;;;;;;50.47;26.95;;;7.90;85.40;;;;;;4898778;29;20442;-75
2021/04/20 00:44:41;;;;;;;44.60;24.83;;;8.00;85.50;;;;;;4898175;29;20040;-76
2021/04/20 00:47:07;;;;;;;49.55;25.48;;;8.00;85.50;;;;;;4897440;29;20088;-75
2021/04/20 00:49:32;;;;;;;41.45;24.42;;;7.90;85.40;;;;;;4896818;29;20453;-75
2021/04/20 00:51:58;;;;;;;37.97;23.30;;;7.90;85.30;;;;;;4898408;29;20068;-75
2021/04/20 00:54:25;;;;;;;41.92;24.05;;;7.90;85.20;;;;;;4898430;29;20064;-75
2021/04/20 00:56:51;;;;;;;39.75;23.08;;;7.90;85.20;;;;;;4898384;29;20036;-75
2021/04/20 00:59:17;;;;;;;33.10;21.63;;;7.90;85.90;;;;;;4897732;29;20028;-75
2021/04/20 01:01:44;;;;;;;34.75;22.42;;;7.80;85.70;;;;;;4897051;29;20115;-75
2021/04/20 01:04:14;;;;;;;34.22;22.95;;;7.80;85.10;;;;;;4896801;29;20037;-75
2021/04/20 01:06:42;;;;;;;32.13;21.55;;;7.70;85.20;;;;;;4896688;29;20071;-75
2021/04/20 01:09:08;;;;;;;25.80;19.95;;;7.60;85.30;;;;;;4898054;29;20033;-75
2021/04/20 01:11:35;;;;;;;28.98;21.33;;;7.60;85.40;;;;;;4906732;29;20036;-75
2021/04/20 01:14:03;;;;;;;26.45;18.95;;;7.50;85.50;;;;;;4897639;29;20115;-76
2021/04/20 01:16:29;;;;;;;26.05;19.00;;;7.50;85.50;;;;;;4897751;29;20130;-75
2021/04/20 01:18:55;;;;;;;36.03;22.45;;;7.50;85.40;;;;;;4897854;29;20024;-75
2021/04/20 01:21:21;;;;;;;36.20;22.85;;;7.40;85.30;;;;;;4897806;29;20052;-76
2021/04/20 01:23:55;;;;;;;35.95;22.05;;;7.40;85.20;;;;;;4907833;29;20036;-75
2021/04/20 01:26:25;;;;;;;47.00;22.48;;;7.40;85.40;;;;;;4899365;29;20112;-75
2021/04/20 01:28:52;;;;;;;143.25;24.42;;;7.30;85.50;;;;;;4897483;29;20192;-75
2021/04/20 01:31:18;;;;;;;52.22;23.60;;;7.30;85.60;;;;;;4897212;29;20043;-75
2021/04/20 01:33:44;;;;;;;73.07;24.88;;;7.30;85.80;;;;;;4897589;29;20394;-75
2021/04/20 01:36:12;;;;;;;109.20;24.23;;;7.30;86.10;;;;;;4897302;29;20563;-75
2021/04/20 01:38:42;;;;;;;104.90;24.55;;;7.30;86.20;;;;;;4903439;29;20041;-75
2021/04/20 01:41:07;;;;;;;81.57;25.58;;;7.30;86.20;;;;;;4893684;29;20475;-75
2021/04/20 01:43:34;;;;;;;34.17;24.90;;;7.30;86.20;;;;;;4897201;29;20040;-76
2021/04/20 01:46:00;;;;;;;41.03;24.33;;;7.30;86.10;;;;;;4897164;29;20430;-75
2021/04/20 01:48:25;;;;;;;31.45;22.42;;;7.20;86.10;;;;;;4896067;29;20029;-75
2021/04/20 01:50:51;;;;;;;29.73;21.77;;;7.20;86.10;;;;;;4898154;29;20083;-75
2021/04/20 01:53:17;;;;;;;35.40;23.33;;;7.20;86.10;;;;;;4909976;29;20048;-75
2021/04/20 01:55:43;;;;;;;37.92;22.52;;;7.10;85.90;;;;;;4897628;29;20487;-75
2021/04/20 01:58:09;;;;;;;31.42;22.75;;;7.10;85.90;;;;;;4897126;29;20040;-75
2021/04/20 02:00:38;;;;;;;27.73;21.02;;;7.00;85.80;;;;;;4897663;29;20024;-75
2021/04/20 02:03:04;;;;;;;31.15;22.42;;;7.00;85.80;;;;;;4898986;29;20036;-75
2021/04/20 02:05:30;;;;;;;30.20;21.75;;;7.00;85.80;;;;;;4905866;29;20040;-75
2021/04/20 02:07:55;;;;;;;28.70;21.15;;;7.00;85.70;;;;;;4901111;29;20080;-75
2021/04/20 02:10:21;;;;;;;25.75;19.90;;;7.00;85.80;;;;;;4901373;29;20029;-75
2021/04/20 02:12:49;;;;;;;25.90;20.40;;;7.00;85.90;;;;;;4899172;29;20139;-75
2021/04/20 02:15:16;;;;;;;25.33;19.92;;;7.00;85.70;;;;;;4900449;29;20040;-75
2021/04/20 02:17:43;;;;;;;27.42;20.80;;;6.90;85.40;;;;;;4901066;29;20040;-75
2021/04/20 02:20:11;;;;;;;29.33;20.77;;;6.90;85.30;;;;;;4901091;29;20108;-75
2021/04/20 02:22:46;;;;;;;30.20;22.17;;;6.80;85.40;;;;;;4899331;29;20539;-76
2021/04/20 02:25:13;;;;;;;27.10;21.63;;;6.70;85.60;;;;;;4900585;29;20047;-75
2021/04/20 02:27:39;;;;;;;27.95;20.95;;;6.70;85.80;;;;;;4901009;29;20052;-75
2021/04/20 02:30:07;;;;;;;25.70;20.52;;;6.70;85.90;;;;;;4900797;29;20080;-75
2021/04/20 02:32:38;;;;;;;27.02;21.27;;;6.70;85.80;;;;;;4900608;29;20112;-75
2021/04/20 02:35:06;;;;;;;31.92;22.83;;;6.80;86.00;;;;;;4899534;29;20037;-75
2021/04/20 02:37:34;;;;;;;37.85;24.98;;;6.80;85.90;;;;;;4901354;29;20025;-75
2021/04/20 02:40:00;;;;;;;34.10;23.50;;;6.90;85.90;;;;;;4900936;29;20029;-75
2021/04/20 02:42:26;;;;;;;91.28;25.90;;;6.90;85.90;;;;;;4900291;29;20421;-76
2021/04/20 02:44:53;;;;;;;111.57;27.23;;;6.90;85.80;;;;;;4899165;29;20041;-75
2021/04/20 02:47:19;;;;;;;98.15;26.65;;;6.90;85.90;;;;;;4900305;29;20395;-75
2021/04/20 02:49:45;;;;;;;135.27;29.58;;;6.80;86.70;;;;;;4900844;29;20461;-75
2021/04/20 02:52:11;;;;;;;108.00;28.75;;;6.80;86.30;;;;;;4900208;29;20115;-75
2021/04/20 02:54:37;;;;;;;139.27;30.05;;;6.80;86.50;;;;;;4900342;29;20399;-75
2021/04/20 02:57:04;;;;;;;152.40;34.35;;;6.80;86.70;;;;;;4900155;29;20037;-75
2021/04/20 02:59:30;;;;;;;191.07;33.17;;;6.70;86.80;;;;;;4900222;29;20378;-75
2021/04/20 03:01:58;;;;;;;218.65;33.35;;;6.80;87.00;;;;;;4899073;29;20036;-75
2021/04/20 03:04:25;;;;;;;236.65;35.58;;;6.80;87.00;;;;;;4900171;29;20115;-75
2021/04/20 03:06:50;;;;;;;170.35;30.30;;;6.80;87.10;;;;;;4900001;29;20153;-75
2021/04/20 03:09:16;;;;;;;186.07;30.70;;;6.80;87.80;;;;;;4899775;29;20584;-75
2021/04/20 03:11:54;;;;;;;222.80;35.20;;;6.70;87.00;;;;;;4879167;29;20033;-75
2021/04/20 03:14:20;;;;;;;151.82;32.25;;;6.80;87.20;;;;;;4898258;29;20040;-75
2021/04/20 03:16:46;;;;;;;286.30;35.22;;;6.70;87.00;;;;;;4899498;29;20059;-75
2021/04/20 03:19:12;;;;;;;270.98;36.25;;;6.70;87.10;;;;;;4900012;29;20482;-75
2021/04/20 03:21:40;;;;;;;210.90;33.35;;;6.70;87.40;;;;;;4899987;29;20033;-75
2021/04/20 03:24:07;;;;;;;213.23;34.90;;;6.70;87.40;;;;;;4898583;29;20040;-75
2021/04/20 03:26:40;;;;;;;127.88;34.78;;;6.70;87.30;;;;;;4883038;29;20431;-75
2021/04/20 03:29:08;;;;;;;265.05;37.65;;;6.70;87.50;;;;;;4883705;29;20040;-75
2021/04/20 03:31:41;;;;;;;229.90;40.15;;;6.70;87.50;;;;;;4904850;29;20031;-75
2021/04/20 03:34:24;;;;;;;358.25;40.72;;;6.70;87.70;;;;;;4900978;29;20039;-75
2021/04/20 03:36:55;;;;;;;336.10;43.65;;;6.70;87.90;;;;;;4899168;29;20043;-75
2021/04/20 03:39:22;;;;;;;365.85;37.53;;;6.60;87.90;;;;;;4900835;29;20027;-75
2021/04/20 03:41:56;;;;;;;226.82;35.67;;;6.70;88.20;;;;;;4881290;29;20029;-75
2021/04/20 03:44:30;;;;;;;328.75;33.20;;;6.60;88.20;;;;;;4904503;29;20025;-75
2021/04/20 03:47:00;;;;;;;160.68;29.20;;;6.60;89.20;;;;;;4909688;29;20036;-75
2021/04/20 03:49:40;;;;;;;340.13;33.22;;;6.60;88.60;;;;;;4902296;29;20390;-75
2021/04/20 03:52:17;;;;;;;351.13;35.70;;;6.60;88.80;;;;;;4899314;29;20095;-75
2021/04/20 03:54:44;;;;;;;365.13;32.70;;;6.60;88.80;;;;;;4898390;29;20109;-75
2021/04/20 03:57:11;;;;;;;424.02;36.70;;;6.60;88.60;;;;;;4898859;29;20053;-75
2021/04/20 03:59:38;;;;;;;257.60;30.27;;;6.60;88.70;;;;;;4898711;29;20032;-75
2021/04/20 04:02:05;;;;;;;153.57;28.98;;;6.50;88.70;;;;;;4897709;29;20033;-75
2021/04/20 04:04:33;;;;;;;315.27;29.63;;;6.50;88.80;;;;;;4898838;29;20056;-75
2021/04/20 04:07:01;;;;;;;344.98;28.55;;;6.50;88.80;;;;;;4899299;29;20043;-75
2021/04/20 04:09:28;;;;;;;285.77;28.55;;;6.50;88.70;;;;;;4897924;29;20036;-75
2021/04/20 04:11:56;;;;;;;232.13;29.33;;;6.40;88.60;;;;;;4897700;29;20033;-75
2021/04/20 04:14:26;;;;;;;114.25;26.02;;;6.40;88.60;;;;;;4898152;29;20036;-75
2021/04/20 04:16:52;;;;;;;100.43;26.27;;;6.40;88.70;;;;;;4900040;29;20024;-75
2021/04/20 04:19:20;;;;;;;141.45;25.08;;;6.40;88.70;;;;;;4898252;29;20102;-75
2021/04/20 04:21:54;;;;;;;144.05;25.95;;;6.40;88.80;;;;;;4898199;29;20091;-75
2021/04/20 04:24:20;;;;;;;150.07;25.08;;;6.40;88.80;;;;;;4897393;29;20032;-75
2021/04/20 04:26:50;;;;;;;77.22;22.63;;;6.30;88.60;;;;;;4882435;29;20498;-75
2021/04/20 04:29:19;;;;;;;194.52;23.02;;;6.30;88.60;;;;;;4897114;29;20033;-75
2021/04/20 04:31:46;;;;;;;184.18;22.05;;;6.40;88.50;;;;;;4898999;29;20512;-75
2021/04/20 04:34:17;;;;;;;169.30;23.50;;;6.30;88.30;;;;;;4897281;29;20355;-75
2021/04/20 04:36:44;;;;;;;190.20;22.83;;;6.30;88.10;;;;;;4898784;29;20029;-75
2021/04/20 04:39:15;;;;;;;34.88;21.23;;;6.30;88.00;;;;;;4897821;29;20036;-75
2021/04/20 04:41:41;;;;;;;63.63;21.42;;;6.20;88.00;;;;;;4923413;29;20039;-75
2021/04/20 04:44:09;;;;;;;118.55;21.58;;;6.20;88.00;;;;;;4917313;29;20035;-75
2021/04/20 04:46:35;;;;;;;118.72;19.42;;;6.20;88.00;;;;;;4899777;29;20028;-75
2021/04/20 04:49:01;;;;;;;159.20;20.73;;;6.20;87.90;;;;;;4897286;29;20483;-75
2021/04/20 04:51:28;;;;;;;133.95;19.55;;;6.10;87.60;;;;;;4882654;29;20032;-75
2021/04/20 04:53:57;;;;;;;118.45;21.05;;;6.10;87.50;;;;;;4897057;29;20123;-75
2021/04/20 04:56:24;;;;;;;130.90;20.67;;;6.10;87.50;;;;;;4903312;29;20028;-75
2021/04/20 04:58:53;;;;;;;132.35;22.35;;;6.10;87.40;;;;;;4901188;29;20032;-75
2021/04/20 05:01:19;;;;;;;146.57;23.33;;;6.10;87.40;;;;;;4898225;29;20039;-75
2021/04/20 05:03:45;;;;;;;144.20;25.20;;;6.10;87.50;;;;;;4906312;29;20040;-75
2021/04/20 05:06:16;;;;;;;260.02;24.92;;;6.10;88.30;;;;;;4889549;29;20047;-75
2021/04/20 05:08:42;;;;;;;239.85;23.58;;;6.10;87.70;;;;;;4881375;29;20439;-75
2021/04/20 05:11:07;;;;;;;328.73;26.60;;;6.10;88.20;;;;;;4905318;29;20028;-75
2021/04/20 05:13:34;;;;;;;211.38;24.60;;;6.10;87.50;;;;;;4907516;29;20043;-75
2021/04/20 05:16:07;;;;;;;201.75;24.70;;;6.10;87.50;;;;;;4897887;29;20123;-75
2021/04/20 05:18:38;;;;;;;276.33;27.23;;;6.10;87.70;;;;;;4900447;29;20071;-75
2021/04/20 05:21:04;;;;;;;288.27;26.33;;;6.10;87.80;;;;;;4901559;29;20041;-75
2021/04/20 05:23:30;;;;;;;309.80;27.88;;;6.10;87.90;;;;;;4901857;29;20036;-75
2021/04/20 05:25:56;;;;;;;125.97;23.65;;;6.10;87.90;;;;;;4909125;29;20032;-75
2021/04/20 05:28:22;;;;;;;212.77;24.65;;;6.10;87.90;;;;;;4900307;29;20029;-75
2021/04/20 05:30:48;;;;;;;272.92;25.23;;;6.20;88.00;;;;;;4915111;29;20060;-75
2021/04/20 05:33:14;;;;;;;156.93;22.33;;;6.20;87.80;;;;;;4908064;29;20051;-75
2021/04/20 05:35:41;;;;;;;83.72;20.98;;;6.20;88.30;;;;;;4902817;29;20040;-75
2021/04/20 05:38:07;;;;;;;169.82;22.60;;;6.30;87.70;;;;;;4911448;29;20420;-75
2021/04/20 05:40:37;;;;;;;270.33;25.27;;;6.30;87.60;;;;;;4900789;29;20028;-75
2021/04/20 05:43:03;;;;;;;163.75;21.67;;;6.30;87.30;;;;;;4896428;29;20075;-75
2021/04/20 05:45:28;;;;;;;66.93;20.67;;;6.30;87.40;;;;;;4901065;29;20032;-75
2021/04/20 05:47:54;;;;;;;206.25;26.40;;;6.30;87.50;;;;;;4898811;29;20040;-75
2021/04/20 05:50:21;;;;;;;127.60;21.88;;;6.40;87.50;;;;;;4907620;29;20723;-75
2021/04/20 05:52:47;;;;;;;118.28;20.30;;;6.40;87.60;;;;;;4901138;29;20036;-75
2021/04/20 05:55:14;;;;;;;150.48;22.75;;;6.40;87.50;;;;;;4908224;29;20028;-75
2021/04/20 05:57:44;;;;;;;108.60;22.50;;;6.40;87.40;;;;;;4906367;29;20470;-75
2021/04/20 06:00:10;;;;;;;122.47;22.50;;;6.50;87.50;;;;;;4908062;29;20043;-75
2021/04/20 06:02:37;;;;;;;143.98;25.80;;;6.50;87.40;;;;;;4898791;29;20044;-75
2021/04/20 06:05:07;;;;;;;92.68;24.60;;;6.60;87.50;;;;;;4879019;29;20073;-75
2021/04/20 06:07:35;;;;;;;126.25;26.65;;;6.60;87.70;;;;;;4886993;29;20032;-75
2021/04/20 06:10:08;;;;;;;97.00;26.20;;;6.70;87.90;;;;;;4897458;29;20435;-75
2021/04/20 06:12:35;;;;;;;105.97;26.13;;;6.70;88.00;;;;;;4892309;29;20079;-75
2021/04/20 06:15:01;;;;;;;68.63;24.25;;;6.80;88.00;;;;;;4897227;29;20044;-75
2021/04/20 06:17:27;;;;;;;88.85;24.80;;;6.80;88.10;;;;;;4881668;29;20037;-75
2021/04/20 06:19:53;;;;;;;62.83;25.92;;;6.90;88.10;;;;;;4903648;29;20517;-75
2021/04/20 06:22:20;;;;;;;59.33;23.83;;;7.00;88.10;;;;;;4897741;29;20107;-75
2021/04/20 06:24:46;;;;;;;88.80;26.73;;;7.10;88.20;;;;;;4896188;29;20036;-75
2021/04/20 06:27:15;;;;;;;60.35;26.55;;;7.10;88.10;;;;;;4897248;29;20092;-75
2021/04/20 06:29:41;;;;;;;80.43;28.05;;;7.20;88.10;;;;;;4896702;29;20084;-76
2021/04/20 06:32:10;;;;;;;106.40;28.52;;;7.30;88.10;;;;;;4898853;29;20047;-75
2021/04/20 06:34:36;;;;;;;82.53;24.95;;;7.30;88.10;;;;;;4897076;29;20471;-75
2021/04/20 06:37:02;;;;;;;82.93;29.50;;;7.40;88.10;;;;;;4897427;29;20033;-75
2021/04/20 06:39:28;;;;;;;93.00;27.52;;;7.50;88.10;;;;;;4897549;29;20618;-76
2021/04/20 06:41:58;;;;;;;76.05;31.73;;;7.60;87.90;;;;;;4897107;29;20072;-75
2021/04/20 06:44:56;;;;;;;94.60;32.50;;;7.70;88.60;;;;;;4899029;29;20033;-75
2021/04/20 06:47:36;;;;;;;95.82;30.85;;;7.80;88.30;;;;;;4907752;29;20119;-75
2021/04/20 06:50:04;;;;;;;60.47;29.65;;;7.90;88.20;;;;;;4903699;29;20035;-75
2021/04/20 06:52:43;;;;;;;53.83;30.58;;;7.90;88.00;;;;;;4900548;29;20108;-75
2021/04/20 06:55:14;;;;;;;94.32;31.45;;;8.10;88.10;;;;;;4900396;29;20052;-75
2021/04/20 06:57:48;;;;;;;70.13;33.40;;;8.10;88.10;;;;;;4910301;29;20024;-75
2021/04/20 07:00:19;;;;;;;106.32;36.15;;;8.20;88.20;;;;;;4898563;29;20037;-75
2021/04/20 07:03:03;;;;;;;68.65;34.72;;;8.30;88.10;;;;;;4887354;29;20562;-76
2021/04/20 07:05:34;;;;;;;79.05;35.80;;;8.40;88.40;;;;;;4899373;29;20044;-75
2021/04/20 07:08:17;;;;;;;80.80;39.22;;;8.50;88.30;;;;;;4900379;29;20434;-75
2021/04/20 07:10:44;;;;;;;178.48;70.50;;;8.60;88.40;;;;;;4900144;29;20474;-75
2021/04/20 07:13:18;;;;;;;222.00;80.53;;;8.80;88.10;;;;;;4900335;29;20024;-76
2021/04/20 07:15:53;;;;;;;146.07;67.03;;;8.90;87.90;;;;;;4901429;29;20045;-75
2021/04/20 07:19:05;;;;;;;92.60;50.75;;;9.10;87.60;;;;;;4898779;29;20107;-75
2021/04/20 07:22:05;;;;;;;86.60;44.25;;;9.30;87.50;;;;;;4898924;29;20025;-75
2021/04/20 07:24:38;;;;;;;75.55;40.58;;;9.40;87.40;;;;;;4899874;29;20037;-75
2021/04/20 07:27:18;;;;;;;66.80;42.13;;;9.40;87.30;;;;;;4900225;29;20028;-75
2021/04/20 07:30:22;;;;;;;69.10;45.15;;;9.50;87.40;;;;;;4898597;29;20119;-75
2021/04/20 07:32:54;;;;;;;71.68;43.83;;;9.70;87.50;;;;;;4908285;29;20468;-75
2021/04/20 07:35:40;;;;;;;71.30;46.08;;;9.80;87.20;;;;;;4898788;29;20390;-76
2021/04/20 07:38:15;;;;;;;72.07;45.38;;;10.00;87.40;;;;;;4880100;29;20025;-75
2021/04/20 07:41:10;;;;;;;73.00;47.05;;;10.30;87.30;;;;;;4883194;29;20056;-76
2021/04/20 07:43:56;;;;;;;85.03;52.58;;;10.40;86.90;;;;;;4885381;29;20045;-75
2021/04/20 07:46:41;;;;;;;80.18;50.20;;;10.60;87.00;;;;;;4899702;29;20037;-75
2021/04/20 07:49:12;;;;;;;72.80;48.55;;;10.70;86.80;;;;;;4897077;29;20084;-75
2021/04/20 07:51:57;;;;;;;77.90;49.15;;;10.90;86.60;;;;;;4916096;29;20071;-75
2021/04/20 07:54:44;;;;;;;72.57;49.78;;;11.10;86.60;;;;;;4903033;29;20111;-75
2021/04/20 07:57:13;;;;;;;72.80;49.60;;;11.20;86.30;;;;;;4897961;29;20112;-75
2021/04/20 07:59:42;;;;;;;71.45;47.20;;;11.30;86.10;;;;;;4897818;29;20024;-75
2021/04/20 08:02:52;;;;;;;78.97;50.78;;;11.50;85.90;;;;;;4914581;29;20040;-75
2021/04/20 08:05:29;;;;;;;80.47;53.50;;;11.60;85.20;;;;;;4918320;29;20359;-76
2021/04/20 08:07:55;;;;;;;72.40;49.63;;;11.70;84.60;;;;;;4918185;29;20481;-75
2021/04/20 08:10:28;;;;;;;76.68;51.83;;;11.80;84.40;;;;;;4918030;29;20044;-75
2021/04/20 08:13:16;;;;;;;76.53;51.47;;;12.00;84.20;;;;;;4916639;29;20039;-75
2021/04/20 08:15:49;;;;;;;75.38;50.88;;;12.10;83.90;;;;;;4906357;29;20045;-75
2021/04/20 08:18:21;;;;;;;76.70;51.67;;;12.30;83.30;;;;;;4899287;29;20056;-75
2021/04/20 08:20:47;;;;;;;77.88;54.22;;;12.40;82.80;;;;;;4899359;29;20033;-75
2021/04/20 08:23:14;;;;;;;75.10;51.00;;;12.50;82.20;;;;;;4899117;29;20047;-76
2021/04/20 08:25:52;;;;;;;79.97;53.72;;;12.70;81.90;;;;;;4899447;29;20029;-82
2021/04/20 08:28:31;;;;;;;82.33;55.77;;;12.80;81.00;;;;;;4899513;29;20052;-81
2021/04/20 08:31:03;;;;;;;;;;;12.90;80.80;;;;;;4899786;29;20033;-80
2021/04/20 08:33:34;;;;;;;82.00;56.05;;;13.00;80.70;;;;;;4898181;29;19907;-81
2021/04/20 08:36:05;;;;;;;91.25;61.13;;;13.10;80.40;;;;;;4899597;29;20025;-81
2021/04/20 08:39:23;;;;;;;89.07;58.53;;;13.30;79.70;;;;;;4898079;29;20435;-81
2021/04/20 08:42:07;;;;;;;84.90;57.67;;;13.40;78.40;;;;;;4874903;29;20033;-81
2021/04/20 08:44:56;;;;;;;86.70;59.25;;;13.50;78.80;;;;;;4899165;29;20024;-82
2021/04/20 08:47:26;;;;;;;;;;;13.60;78.50;;;;;;4899811;29;20032;-80
2021/04/20 08:50:09;;;;;;;88.10;59.70;;;13.80;78.50;;;;;;4897685;29;20281;-82
2021/04/20 08:52:49;;;;;;;81.40;57.13;;;13.90;78.30;;;;;;4880259;29;20056;-82
2021/04/20 08:55:31;;;;;;;76.03;53.50;;;14.00;77.30;;;;;;4917977;29;20534;-82
2021/04/20 08:58:09;;;;;;;79.35;55.40;;;14.20;77.00;;;;;;4916388;29;20028;-82
2021/04/20 09:00:57;;;;;;;90.25;59.42;;;14.30;77.30;;;;;;4918470;29;20389;-82
2021/04/20 09:03:53;;;;;;;82.60;56.73;;;14.50;77.20;;;;;;4917730;29;20048;-82
2021/04/20 09:06:32;;;;;;;85.07;56.30;;;14.60;75.70;;;;;;4906985;29;20040;-81
2021/04/20 09:09:05;;;;;;;82.50;56.88;;;14.70;75.60;;;;;;4917678;29;20035;-82
2021/04/20 09:11:42;;;;;;;83.07;57.47;;;14.70;76.20;;;;;;4916956;29;20031;-81
2021/04/20 09:14:07;;;;;;;79.07;54.63;;;14.80;76.00;;;;;;4915814;29;20028;-82
2021/04/20 09:16:55;;;;;;;81.00;54.70;;;14.90;74.80;;;;;;4914106;29;20028;-82
2021/04/20 09:20:00;;;;;;;82.35;55.15;;;14.90;73.90;;;;;;4917335;29;20030;-81
2021/04/20 09:22:51;;;;;;;84.53;56.60;;;15.00;74.90;;;;;;4915187;29;20028;-82
2021/04/20 09:25:19;;;;;;;77.97;54.42;;;15.10;74.80;;;;;;4916450;29;20379;-82
2021/04/20 09:27:48;;;;;;;73.72;54.35;;;15.10;75.10;;;;;;4917529;29;20054;-82
2021/04/20 09:30:16;;;;;;;;;;;15.20;72.80;;;;;;4916689;29;20036;-82
2021/04/20 09:32:49;;;;;;;72.47;50.88;;;15.30;73.30;;;;;;4916202;29;19914;-82
2021/04/20 09:35:15;;;;;;;78.90;52.95;;;15.50;73.00;;;;;;4917488;29;20028;-82
2021/04/20 09:37:42;;;;;;;78.15;53.75;;;15.60;72.10;;;;;;4917480;29;20021;-83
2021/04/20 09:40:12;;;;;;;72.95;52.58;;;15.80;71.00;;;;;;4917695;29;20036;-81
2021/04/20 09:42:40;;;;;;;72.25;50.50;;;15.80;70.60;;;;;;4917428;29;20032;-83
2021/04/20 09:45:22;;;;;;;73.53;49.47;;;15.90;70.40;;;;;;4917587;29;20379;-83
2021/04/20 09:47:54;;;;;;;73.18;51.33;;;16.00;70.30;;;;;;4916814;29;20508;-83
2021/04/20 09:50:27;;;;;;;73.30;50.40;;;16.20;69.70;;;;;;4903838;29;20036;-83
2021/04/20 09:53:09;;;;;;;73.38;50.60;;;16.30;68.10;;;;;;4915969;29;20028;-82
2021/04/20 09:55:41;;;;;;;76.07;51.33;;;16.20;68.40;;;;;;4916521;29;20024;-83
2021/04/20 09:58:08;;;;;;;71.72;50.03;;;16.20;67.50;;;;;;4917633;29;20470;-83
2021/04/20 10:00:34;;;;;;;72.55;47.83;;;16.30;67.90;;;;;;4917392;29;20071;-83
2021/04/20 10:03:11;;;;;;;67.72;46.15;;;16.40;66.20;;;;;;4917607;29;20056;-83
2021/04/20 10:05:55;;;;;;;67.80;47.00;;;16.60;65.30;;;;;;4879432;29;20029;-83
2021/04/20 10:08:50;;;;;;;71.05;47.72;;;16.80;65.70;;;;;;4881031;29;20025;-83
2021/04/20 10:11:32;;;;;;;61.90;42.80;;;16.90;63.90;;;;;;4900154;29;20033;-83
2021/04/20 10:14:27;;;;;;;63.15;42.35;;;17.10;64.40;;;;;;4897829;29;20020;-82
2021/04/20 10:17:16;;;;;;;54.38;39.33;;;17.40;64.80;;;;;;4913157;29;20028;-83
2021/04/20 10:20:07;;;;;;;52.47;38.97;;;17.70;63.70;;;;;;4898003;29;20382;-82
2021/04/20 10:22:36;;;;;;;57.67;38.72;;;18.00;62.20;;;;;;4897966;29;20033;-82
2021/04/20 10:25:02;;;;;;;;;;;18.20;61.90;;;;;;4900374;29;20127;-83
2021/04/20 10:27:29;;;;;;;53.00;38.88;;;18.30;60.70;;;;;;4902180;29;19951;-83
2021/04/20 10:30:01;;;;;;;51.97;37.55;;;18.30;59.00;;;;;;4903215;29;20044;-82
2021/04/20 10:32:54;;;;;;;50.00;36.67;;;18.30;58.20;;;;;;4909757;29;20504;-82
2021/04/20 10:35:37;;;;;;;51.50;34.72;;;18.40;57.70;;;;;;4899704;29;20040;-83
2021/04/20 10:38:11;;;;;;;46.92;33.20;;;18.40;57.90;;;;;;4901540;29;20104;-82
2021/04/20 10:40:37;;;;;;;40.22;29.95;;;18.30;57.50;;;;;;4901500;29;20151;-82
2021/04/20 10:43:10;;;;;;;40.80;29.92;;;18.40;57.20;;;;;;4901441;29;20450;-83
2021/04/20 10:45:37;;;;;;;39.88;29.17;;;18.50;56.80;;;;;;4910437;29;20461;-83
2021/04/20 10:48:04;;;;;;;40.05;28.13;;;18.60;54.50;;;;;;4909489;29;20056;-84
2021/04/20 10:50:34;;;;;;;30.92;24.75;;;18.70;55.00;;;;;;4903043;29;20563;-84
2021/04/20 10:53:18;;;;;;;30.50;24.17;;;18.90;54.80;;;;;;4920174;29;20032;-84
2021/04/20 10:56:10;;;;;;;29.02;24.10;;;19.10;53.20;;;;;;4919966;29;20363;-85
2021/04/20 10:58:41;;;;;;;27.75;22.30;;;19.20;53.40;;;;;;4882350;29;20057;-84
2021/04/20 11:01:07;;;;;;;27.50;22.98;;;19.20;53.30;;;;;;4903094;29;20032;-84
2021/04/20 11:03:35;;;;;;;24.33;19.48;;;19.40;51.10;;;;;;4880578;29;20490;-86
2021/04/20 11:06:06;;;;;;;26.85;19.55;;;19.50;51.70;;;;;;4882051;29;20041;-85
2021/04/20 11:08:43;;;;;;;27.88;21.40;;;19.60;50.20;;;;;;4881946;29;20045;-84
2021/04/20 11:11:20;;;;;;;26.73;21.33;;;19.70;48.90;;;;;;4882263;29;20052;-85
2021/04/20 11:13:47;;;;;;;26.25;21.05;;;19.60;50.20;;;;;;4882289;29;20024;-85
2021/04/20 11:16:21;;;;;;;27.48;22.15;;;19.80;49.90;;;;;;4882149;29;20041;-84
2021/04/20 11:18:53;;;;;;;27.20;21.65;;;19.90;48.60;;;;;;4881460;29;20363;-84
2021/04/20 11:21:26;;;;;;;27.52;22.02;;;20.00;48.00;;;;;;4881097;29;20041;-85
2021/04/20 11:24:03;;;;;;;31.48;22.98;;;20.10;47.60;;;;;;4882297;29;20382;-85
2021/04/20 11:26:33;;;;;;;27.15;22.58;;;20.10;47.20;;;;;;4882114;29;20471;-84
2021/04/20 11:29:05;;;;;;;27.38;21.67;;;20.20;47.30;;;;;;4881372;29;20040;-85
2021/04/20 11:31:39;;;;;;;24.88;19.98;;;20.30;47.70;;;;;;4896109;29;20120;-84
2021/04/20 11:34:27;;;;;;;23.67;18.75;;;20.40;47.00;;;;;;4885783;29;20029;-85
2021/04/20 11:36:57;;;;;;;24.75;19.05;;;20.20;46.40;;;;;;4918940;29;20020;-84
2021/04/20 11:39:28;;;;;;;22.95;18.60;;;19.80;47.40;;;;;;4919459;29;20020;-85
2021/04/20 11:42:29;;;;;;;22.67;19.05;;;19.50;48.10;;;;;;4919107;29;20020;-74
2021/04/20 11:44:58;;;;;;;25.67;19.77;;;19.20;48.30;;;;;;4917595;29;20032;-74
2021/04/20 11:47:25;;;;;;;22.60;18.15;;;18.90;48.30;;;;;;4917725;29;20039;-74
2021/04/20 11:49:57;;;;;;;23.33;17.98;;;18.80;48.90;;;;;;4898640;29;20520;-73
2021/04/20 11:52:29;;;;;;;22.63;18.30;;;18.60;48.90;;;;;;4899889;29;20063;-74
2021/04/20 11:54:58;;;;;;;25.13;20.23;;;18.50;49.20;;;;;;4898714;29;20032;-73
2021/04/20 11:57:25;;;;;;;25.23;19.48;;;18.40;49.30;;;;;;4899890;29;20598;-73
2021/04/20 11:59:51;;;;;;;27.42;21.88;;;18.30;49.30;;;;;;4898487;29;20522;-74
2021/04/20 12:02:18;;;;;;;28.38;23.30;;;18.20;50.20;;;;;;4902806;29;20111;-74
2021/04/20 12:04:48;;;;;;;31.35;23.90;;;18.10;51.10;;;;;;4916757;29;20409;-74
2021/04/20 12:07:22;;;;;;;33.78;26.63;;;18.10;52.00;;;;;;4880841;29;20021;-74
2021/04/20 12:09:48;;;;;;;33.30;25.48;;;18.00;51.20;;;;;;4880656;29;20148;-74
2021/04/20 12:12:15;;;;;;;35.70;26.08;;;17.80;51.50;;;;;;4879367;29;20061;-74
2021/04/20 12:14:43;;;;;;;33.88;26.17;;;17.70;51.60;;;;;;4880502;29;20083;-73
2021/04/20 12:17:08;;;;;;;32.55;24.30;;;17.50;52.00;;;;;;4899188;29;20031;-74
2021/04/20 12:19:37;;;;;;;30.27;24.58;;;17.50;53.20;;;;;;4916882;29;20036;-74
2021/04/20 12:22:05;;;;;;;32.90;24.97;;;17.50;52.70;;;;;;4918227;29;20496;-74
2021/04/20 12:24:35;;;;;;;32.33;24.75;;;17.50;52.20;;;;;;4915316;29;20285;-74
2021/04/20 12:27:03;;;;;;;30.10;24.13;;;17.50;51.40;;;;;;4918049;29;20087;-74
2021/04/20 12:29:38;;;;;;;33.78;23.90;;;17.50;51.90;;;;;;4917907;29;20111;-73
2021/04/20 12:32:17;;;;;;;27.00;20.77;;;17.40;52.30;;;;;;4918056;29;20028;-73
2021/04/20 12:34:44;;;;;;;24.17;20.33;;;17.50;52.60;;;;;;4916713;29;20024;-74
2021/04/20 12:37:10;;;;;;;25.25;20.27;;;17.60;52.50;;;;;;4917984;29;20478;-73
2021/04/20 12:39:42;;;;;;;26.77;20.83;;;17.60;52.60;;;;;;4906882;29;20546;-74
2021/04/20 12:42:12;;;;;;;26.15;19.92;;;17.70;51.50;;;;;;4898849;29;20037;-74
2021/04/20 12:44:41;;;;;;;25.75;20.42;;;17.80;51.70;;;;;;4898830;29;20538;-73
2021/04/20 12:47:09;;;;;;;27.92;20.60;;;17.80;50.70;;;;;;4898696;29;20126;-74
2021/04/20 12:49:37;;;;;;;26.60;20.60;;;17.90;51.10;;;;;;4898837;29;20025;-74
2021/04/20 12:52:11;;;;;;;26.95;20.98;;;17.90;50.80;;;;;;4898754;29;20551;-74